Terminal Aerodrome Forecast
Issued by NWS Blacksburg, VA

Home | Current Version | Previous Version | Text Only | Print | Product List | Glossary On
Versions: 1 2 3 4 5 6 7 8 9 10 11 12 13 14
000
FTUS41 KRNK 280137 AAB
TAFDAN
TAF AMD
KDAN 280137Z 2802/2824 19004KT P6SM VCSH OVC100
     FM281200 21005KT P6SM OVC025
     FM281600 23008KT P6SM OVC060
     FM282200 27008KT P6SM BKN140=

USA.gov is the U.S. government's official web portal to all federal, state and local government web resources and services.